createdAt,value
2022-07-30T00:02:29.341Z,10.70
2022-07-30T00:05:02.425Z,9.30
2022-07-30T00:07:35.957Z,9.70
2022-07-30T00:10:08.908Z,9.32
2022-07-30T00:12:41.789Z,9.07
2022-07-30T00:15:14.468Z,8.65
2022-07-30T00:17:49.116Z,7.90
2022-07-30T00:20:23.080Z,8.02
2022-07-30T00:23:05.676Z,8.25
2022-07-30T00:25:40.669Z,7.57
2022-07-30T00:28:13.591Z,8.38
2022-07-30T00:30:46.353Z,7.93
2022-07-30T00:33:19.354Z,8.15
2022-07-30T00:35:52.057Z,7.40
2022-07-30T00:38:25.574Z,7.95
2022-07-30T00:40:59.639Z,7.72
2022-07-30T00:43:32.760Z,8.52
2022-07-30T00:46:21.958Z,8.60
2022-07-30T00:48:57.313Z,7.65
2022-07-30T00:51:30.309Z,7.10
2022-07-30T00:54:03.507Z,7.03
2022-07-30T00:56:36.389Z,7.82
2022-07-30T00:59:09.628Z,6.70
2022-07-30T01:01:42.416Z,7.68
2022-07-30T01:04:17.395Z,8.15
2022-07-30T01:07:01.221Z,7.72
2022-07-30T01:09:48.466Z,8.85
2022-07-30T01:12:34.856Z,9.30
2022-07-30T01:15:09.783Z,8.45
2022-07-30T01:17:42.896Z,8.40
2022-07-30T01:20:24.989Z,7.85
2022-07-30T01:23:27.828Z,8.45
2022-07-30T01:26:21.062Z,8.55
2022-07-30T01:28:56.308Z,9.82
2022-07-30T01:31:30.226Z,9.52
2022-07-30T01:34:04.748Z,9.68
2022-07-30T01:36:37.992Z,9.87
2022-07-30T01:39:10.735Z,10.10
2022-07-30T01:41:44.433Z,10.10
2022-07-30T01:44:23.919Z,9.25
2022-07-30T01:46:59.065Z,10.13
2022-07-30T01:49:35.083Z,10.18
2022-07-30T01:52:10.296Z,10.38
2022-07-30T01:54:46.056Z,11.15
2022-07-30T01:57:21.346Z,10.55
2022-07-30T02:02:31.503Z,9.40
2022-07-30T02:05:06.459Z,9.55
2022-07-30T02:07:53.140Z,9.13
2022-07-30T02:10:44.581Z,9.82
2022-07-30T02:13:28.059Z,9.13
2022-07-30T02:16:14.304Z,9.00
2022-07-30T02:18:58.546Z,8.95
2022-07-30T02:21:36.631Z,8.90
2022-07-30T02:24:15.702Z,9.38
2022-07-30T02:26:55.807Z,9.77
2022-07-30T02:29:29.519Z,9.27
2022-07-30T02:32:06.808Z,9.43
2022-07-30T02:34:42.098Z,9.30
2022-07-30T02:37:15.951Z,9.27
2022-07-30T02:39:49.902Z,9.93
2022-07-30T02:42:24.631Z,9.43
2022-07-30T02:44:59.372Z,9.65
2022-07-30T02:47:33.193Z,8.80
2022-07-30T02:50:11.188Z,9.20
2022-07-30T02:52:45.315Z,9.00
2022-07-30T02:55:19.161Z,9.05
2022-07-30T02:57:54.091Z,9.13
2022-07-30T03:00:29.194Z,9.32
2022-07-30T03:03:06.179Z,8.10
2022-07-30T03:05:40.160Z,8.73
2022-07-30T03:08:19.944Z,9.30
2022-07-30T03:10:56.755Z,10.02
2022-07-30T03:13:30.923Z,9.60
2022-07-30T03:16:08.598Z,9.07
2022-07-30T03:18:44.493Z,8.52
2022-07-30T03:21:19.570Z,9.05
2022-07-30T03:23:55.603Z,8.80
2022-07-30T03:26:30.484Z,8.93
2022-07-30T03:29:03.769Z,9.15
2022-07-30T03:31:39.123Z,9.15
2022-07-30T03:34:12.682Z,9.32
2022-07-30T03:36:47.964Z,9.40
2022-07-30T03:39:22.642Z,8.93
2022-07-30T03:41:56.524Z,8.85
2022-07-30T03:47:07.747Z,9.02
2022-07-30T03:49:47.443Z,9.43
2022-07-30T03:52:21.335Z,9.48
2022-07-30T03:54:55.404Z,8.82
2022-07-30T03:57:54.515Z,9.57
2022-07-30T04:00:32.799Z,9.18
2022-07-30T04:03:05.569Z,10.50
2022-07-30T04:05:59.003Z,9.70
2022-07-30T04:08:31.976Z,9.88
2022-07-30T04:11:05.002Z,10.57
2022-07-30T04:13:53.332Z,10.32
2022-07-30T04:17:02.800Z,10.02
2022-07-30T04:19:42.532Z,10.05
2022-07-30T04:22:21.954Z,11.65
2022-07-30T04:24:57.043Z,10.52
2022-07-30T04:27:31.472Z,10.57
2022-07-30T04:30:05.952Z,9.90
2022-07-30T04:32:42.761Z,10.80
2022-07-30T04:35:51.191Z,10.63
2022-07-30T04:38:37.755Z,10.50
2022-07-30T04:41:10.701Z,11.10
2022-07-30T04:44:03.482Z,11.10
2022-07-30T04:46:38.213Z,11.25
2022-07-30T04:49:13.527Z,11.98
2022-07-30T04:51:47.836Z,12.60
2022-07-30T04:54:22.115Z,13.13
2022-07-30T04:56:55.178Z,12.73
2022-07-30T04:59:28.146Z,13.07
2022-07-30T05:02:01.830Z,12.10
2022-07-30T05:04:36.590Z,11.65
2022-07-30T05:07:10.177Z,12.17
2022-07-30T05:09:43.217Z,10.93
2022-07-30T05:12:16.796Z,10.90
2022-07-30T05:14:49.535Z,10.88
2022-07-30T05:17:23.507Z,11.38
2022-07-30T05:19:56.350Z,11.85
2022-07-30T05:22:31.180Z,10.32
2022-07-30T05:25:04.109Z,10.13
2022-07-30T05:27:48.895Z,9.68
2022-07-30T05:30:26.135Z,10.25
2022-07-30T05:33:03.696Z,9.95
2022-07-30T05:35:43.630Z,9.63
2022-07-30T05:38:18.037Z,10.23
2022-07-30T05:41:32.440Z,10.70
2022-07-30T05:44:13.864Z,8.90
2022-07-30T05:46:47.083Z,8.95
2022-07-30T05:49:19.861Z,9.23
2022-07-30T05:51:52.604Z,8.57
2022-07-30T05:54:25.033Z,9.00
2022-07-30T05:57:16.098Z,8.68
2022-07-30T05:59:50.863Z,8.20
2022-07-30T06:02:31.864Z,8.35
2022-07-30T06:05:13.342Z,8.15
2022-07-30T06:07:47.500Z,9.57
2022-07-30T06:10:22.491Z,8.60
2022-07-30T06:12:56.217Z,8.35
2022-07-30T06:15:28.829Z,7.82
2022-07-30T06:18:02.172Z,8.18
2022-07-30T06:20:55.935Z,7.78
2022-07-30T06:23:57.483Z,7.88
2022-07-30T06:26:56.130Z,8.32
2022-07-30T06:29:29.057Z,8.30
2022-07-30T06:32:01.500Z,8.27
2022-07-30T06:34:34.764Z,6.85
2022-07-30T06:37:07.396Z,7.85
2022-07-30T06:39:56.942Z,7.85
2022-07-30T06:42:49.499Z,6.90
2022-07-30T06:45:43.066Z,6.43
2022-07-30T06:48:33.508Z,5.70
2022-07-30T06:51:10.331Z,6.28
2022-07-30T06:53:46.141Z,5.40
2022-07-30T06:56:19.016Z,6.13
2022-07-30T06:58:59.919Z,6.30
2022-07-30T07:01:54.451Z,6.20
2022-07-30T07:04:29.578Z,6.00
2022-07-30T07:07:12.470Z,5.88
2022-07-30T07:09:47.471Z,5.50
2022-07-30T07:12:43.064Z,6.30
2022-07-30T07:15:15.772Z,5.72
2022-07-30T07:17:49.420Z,5.50
2022-07-30T07:20:44.018Z,5.75
2022-07-30T07:23:19.797Z,6.15
2022-07-30T07:25:58.510Z,6.57
2022-07-30T07:28:33.629Z,6.25
2022-07-30T07:31:09.351Z,5.82
2022-07-30T07:33:43.019Z,5.22
2022-07-30T07:36:16.504Z,5.70
2022-07-30T07:38:49.690Z,6.20
2022-07-30T07:41:22.893Z,5.95
2022-07-30T07:43:55.553Z,6.13
2022-07-30T07:46:37.486Z,6.47
2022-07-30T07:49:11.468Z,6.32
2022-07-30T07:51:50.898Z,6.00
2022-07-30T07:54:25.556Z,6.38
2022-07-30T07:57:02.317Z,6.28
2022-07-30T07:59:44.144Z,5.03
2022-07-30T08:02:22.660Z,4.70
2022-07-30T08:05:06.349Z,4.85
2022-07-30T08:07:46.025Z,4.47
2022-07-30T08:10:38.984Z,5.00
2022-07-30T08:13:52.082Z,4.70
2022-07-30T08:16:43.967Z,4.20
2022-07-30T08:19:16.777Z,3.83
2022-07-30T08:21:56.368Z,3.88
2022-07-30T08:24:28.991Z,3.80
2022-07-30T08:27:02.765Z,4.20
2022-07-30T08:29:36.774Z,4.20
2022-07-30T08:32:09.829Z,4.72
2022-07-30T08:34:45.348Z,4.53
2022-07-30T08:37:18.998Z,3.90
2022-07-30T08:39:52.745Z,4.43
2022-07-30T08:42:26.508Z,4.00
2022-07-30T08:44:59.480Z,3.80
2022-07-30T08:47:34.209Z,3.80
2022-07-30T08:50:16.947Z,3.47
2022-07-30T08:53:19.945Z,3.22
2022-07-30T08:55:56.854Z,3.58
2022-07-30T09:27:05.792Z,2.88
2022-07-30T09:30:11.544Z,3.00
2022-07-30T09:33:14.258Z,2.85
2022-07-30T09:36:12.481Z,2.42
2022-07-30T09:39:03.940Z,2.70
2022-07-30T09:41:55.349Z,2.72
2022-07-30T09:44:30.231Z,2.33
2022-07-30T09:47:03.502Z,2.88
2022-07-30T09:49:42.306Z,3.20
2022-07-30T09:52:32.207Z,3.15
2022-07-30T09:55:06.676Z,2.92
2022-07-30T09:58:12.882Z,2.90
2022-07-30T10:01:00.182Z,2.35
2022-07-30T10:03:52.889Z,2.72
2022-07-30T10:06:37.790Z,2.85
2022-07-30T10:09:37.283Z,2.50
2022-07-30T10:12:15.004Z,2.70
2022-07-30T10:14:55.175Z,2.55
2022-07-30T10:17:28.823Z,2.55
2022-07-30T10:20:33.221Z,2.35
2022-07-30T10:23:30.005Z,2.38
2022-07-30T10:26:24.784Z,2.53
2022-07-30T10:29:18.653Z,2.40
2022-07-30T10:31:54.466Z,3.22
2022-07-30T10:34:31.356Z,3.30
2022-07-30T10:37:08.522Z,3.83
2022-07-30T10:40:06.261Z,3.13
2022-07-30T10:43:00.894Z,3.22
2022-07-30T10:45:47.725Z,3.00
2022-07-30T10:48:22.636Z,3.60
2022-07-30T10:50:57.954Z,3.92
2022-07-30T10:53:46.474Z,4.43
2022-07-30T10:56:25.842Z,4.50
2022-07-30T10:59:02.859Z,3.35
2022-07-30T11:01:53.515Z,3.90
2022-07-30T11:04:29.631Z,4.72
2022-07-30T11:07:28.844Z,5.00
2022-07-30T11:10:05.542Z,3.30
2022-07-30T11:12:44.126Z,3.90
2022-07-30T11:15:19.792Z,3.95
2022-07-30T11:18:12.321Z,3.10
2022-07-30T11:21:22.658Z,3.70
2022-07-30T11:23:56.696Z,3.42
2022-07-30T11:26:51.425Z,3.10
2022-07-30T11:29:50.585Z,2.83
2022-07-30T11:32:29.897Z,3.75
2022-07-30T11:35:15.410Z,3.28
2022-07-30T11:38:08.947Z,2.85
2022-07-30T11:40:50.648Z,2.65
2022-07-30T11:43:35.766Z,2.60
2022-07-30T11:46:10.853Z,2.88
2022-07-30T11:48:59.978Z,3.80
2022-07-30T11:51:43.620Z,3.13
2022-07-30T11:54:17.053Z,2.88
2022-07-30T11:57:02.170Z,4.20
2022-07-30T11:59:54.623Z,3.53
2022-07-30T12:02:29.257Z,2.50
2022-07-30T12:05:02.310Z,2.20
2022-07-30T12:07:35.804Z,2.75
2022-07-30T12:10:26.720Z,2.72
2022-07-30T12:13:17.110Z,2.10
2022-07-30T12:15:49.965Z,2.35
2022-07-30T12:18:28.867Z,2.35
2022-07-30T12:21:17.112Z,3.30
2022-07-30T12:24:10.381Z,3.05
2022-07-30T12:26:44.600Z,2.22
2022-07-30T12:29:18.544Z,2.50
2022-07-30T12:31:53.633Z,2.40
2022-07-30T12:34:27.584Z,2.20
2022-07-30T12:37:11.013Z,2.08
2022-07-30T12:39:43.923Z,2.15
2022-07-30T12:42:21.006Z,1.70
2022-07-30T12:44:54.074Z,2.30
2022-07-30T12:47:29.299Z,2.65
2022-07-30T12:50:04.320Z,2.80
2022-07-30T12:52:44.277Z,3.40
2022-07-30T12:55:19.971Z,3.10
2022-07-30T12:57:56.186Z,2.72
2022-07-30T13:00:51.617Z,3.45
2022-07-30T13:03:29.292Z,2.72
2022-07-30T13:06:02.600Z,2.90
2022-07-30T13:08:53.433Z,2.22
2022-07-30T13:11:42.735Z,2.70
2022-07-30T13:17:00.680Z,2.05
2022-07-30T13:19:34.065Z,2.10
2022-07-30T13:22:07.122Z,1.80
2022-07-30T13:24:40.282Z,2.10
2022-07-30T13:27:13.365Z,2.20
2022-07-30T13:29:46.612Z,1.98
2022-07-30T13:32:19.617Z,2.22
2022-07-30T13:34:53.269Z,2.13
2022-07-30T13:37:37.599Z,2.08
2022-07-30T13:40:11.856Z,2.20
2022-07-30T13:42:45.055Z,1.50
2022-07-30T13:45:18.642Z,1.70
2022-07-30T13:47:51.781Z,2.10
2022-07-30T13:50:24.823Z,2.00
2022-07-30T13:53:02.128Z,1.60
2022-07-30T13:55:36.533Z,1.80
2022-07-30T13:58:10.824Z,2.20
2022-07-30T14:00:45.617Z,1.67
2022-07-30T14:03:18.777Z,1.60
2022-07-30T14:05:51.866Z,1.48
2022-07-30T14:08:26.134Z,1.70
2022-07-30T14:10:59.304Z,2.10
2022-07-30T14:13:32.337Z,1.77
2022-07-30T14:16:10.702Z,1.70
2022-07-30T14:18:58.132Z,1.40
2022-07-30T14:24:08.002Z,1.63
2022-07-30T14:26:42.514Z,1.77
2022-07-30T14:29:15.805Z,1.60
2022-07-30T14:31:50.028Z,1.58
2022-07-30T14:34:23.363Z,1.50
2022-07-30T14:36:56.410Z,1.45
2022-07-30T14:39:29.612Z,1.60
2022-07-30T14:42:03.878Z,1.70
2022-07-30T14:44:37.018Z,1.53
2022-07-30T14:47:11.320Z,1.77
2022-07-30T14:49:46.723Z,1.50
2022-07-30T14:52:19.909Z,1.73
2022-07-30T14:54:53.306Z,1.50
2022-07-30T14:57:26.716Z,1.50
2022-07-30T14:59:59.500Z,1.15
2022-07-30T15:02:34.806Z,1.40
2022-07-30T15:05:08.670Z,1.35
2022-07-30T15:07:42.178Z,1.27
2022-07-30T15:10:15.951Z,1.58
2022-07-30T15:12:49.401Z,1.48
2022-07-30T15:15:23.285Z,1.50
2022-07-30T15:20:30.276Z,1.48
2022-07-30T15:23:04.427Z,1.30
2022-07-30T15:25:37.719Z,1.58
2022-07-30T15:28:11.206Z,1.65
2022-07-30T15:30:44.208Z,1.77
2022-07-30T15:33:17.754Z,1.80
2022-07-30T15:35:51.664Z,2.67
2022-07-30T15:38:24.462Z,1.70
2022-07-30T15:40:57.504Z,1.63
2022-07-30T15:43:30.961Z,1.50
2022-07-30T15:46:04.073Z,2.65
2022-07-30T15:48:38.430Z,1.63
2022-07-30T15:51:12.423Z,1.38
2022-07-30T15:53:45.498Z,1.77
2022-07-30T15:56:19.235Z,1.90
2022-07-30T15:58:52.954Z,1.70
2022-07-30T16:01:25.979Z,1.95
2022-07-30T16:03:59.128Z,2.40
2022-07-30T16:06:32.489Z,1.50
2022-07-30T16:09:05.531Z,1.55
2022-07-30T16:11:38.672Z,1.70
2022-07-30T16:14:12.213Z,1.58
2022-07-30T16:16:45.574Z,4.25
2022-07-30T16:19:18.573Z,1.83
2022-07-30T16:21:51.636Z,1.75
2022-07-30T16:24:24.637Z,1.63
2022-07-30T16:26:57.817Z,1.92
2022-07-30T16:29:31.077Z,1.50
2022-07-30T16:32:05.042Z,1.88
2022-07-30T16:34:38.335Z,1.65
2022-07-30T16:37:11.238Z,1.77
2022-07-30T16:39:44.289Z,1.85
2022-07-30T16:42:17.477Z,1.95
2022-07-30T16:44:50.576Z,1.75
2022-07-30T16:47:24.059Z,1.67
2022-07-30T16:49:57.393Z,1.92
2022-07-30T16:52:31.314Z,2.13
2022-07-30T16:55:04.758Z,2.00
2022-07-30T16:57:37.767Z,2.38
2022-07-30T17:00:12.710Z,1.63
2022-07-30T17:02:45.899Z,1.67
2022-07-30T17:05:19.597Z,1.95
2022-07-30T17:07:52.810Z,2.17
2022-07-30T17:10:27.105Z,1.63
2022-07-30T17:13:00.518Z,2.30
2022-07-30T17:15:34.568Z,1.73
2022-07-30T17:18:09.198Z,2.50
2022-07-30T17:20:43.213Z,2.15
2022-07-30T17:23:16.309Z,1.98
2022-07-30T17:25:49.616Z,2.08
2022-07-30T17:28:27.200Z,1.92
2022-07-30T17:31:00.598Z,2.20
2022-07-30T17:33:33.858Z,2.30
2022-07-30T17:36:10.502Z,2.10
2022-07-30T17:38:43.607Z,2.20
2022-07-30T17:41:17.061Z,2.30
2022-07-30T17:43:50.110Z,1.88
2022-07-30T17:46:23.373Z,2.50
2022-07-30T17:48:56.429Z,1.92
2022-07-30T17:51:29.924Z,2.15
2022-07-30T17:54:06.297Z,2.10
2022-07-30T17:56:39.968Z,2.20
2022-07-30T17:59:23.744Z,2.45
2022-07-30T18:01:57.081Z,2.30
2022-07-30T18:04:56.392Z,2.10
2022-07-30T18:07:30.540Z,2.13
2022-07-30T18:10:06.224Z,2.45
2022-07-30T18:12:39.684Z,2.15
2022-07-30T18:15:22.681Z,2.15
2022-07-30T18:17:57.329Z,2.28
2022-07-30T18:20:34.476Z,2.42
2022-07-30T18:23:23.719Z,2.10
2022-07-30T18:25:57.596Z,2.30
2022-07-30T18:28:31.034Z,2.05
2022-07-30T18:31:17.580Z,2.30
2022-07-30T18:33:51.109Z,2.47
2022-07-30T18:36:24.253Z,2.22
2022-07-30T18:38:57.447Z,2.30
2022-07-30T18:41:30.783Z,2.22
2022-07-30T18:44:04.326Z,2.30
2022-07-30T18:46:37.560Z,2.47
2022-07-30T19:00:35.501Z,2.40
2022-07-30T19:03:15.421Z,2.53
2022-07-30T19:05:50.615Z,2.67
2022-07-30T19:08:23.656Z,2.83
2022-07-30T19:10:56.682Z,2.50
2022-07-30T19:13:30.163Z,2.47
2022-07-30T19:16:03.113Z,2.70
2022-07-30T19:18:36.207Z,2.65
2022-07-30T19:21:12.423Z,2.72
2022-07-30T19:23:47.172Z,2.67
2022-07-30T19:26:22.447Z,2.60
2022-07-30T19:28:58.694Z,2.97
2022-07-30T19:31:31.656Z,2.60
2022-07-30T19:34:05.365Z,2.60
2022-07-30T19:36:38.501Z,2.92
2022-07-30T19:39:15.945Z,2.65
2022-07-30T19:41:55.415Z,3.00
2022-07-30T19:44:31.666Z,3.40
2022-07-30T19:47:17.296Z,2.30
2022-07-30T19:49:52.064Z,2.65
2022-07-30T19:52:27.739Z,2.70
2022-07-30T19:55:01.546Z,2.22
2022-07-30T19:57:53.328Z,2.38
2022-07-30T20:00:27.817Z,2.65
2022-07-30T20:03:01.203Z,2.70
2022-07-30T20:05:57.411Z,2.60
2022-07-30T20:08:27.378Z,2.90
2022-07-30T20:11:01.811Z,2.25
2022-07-30T20:13:44.625Z,2.10
2022-07-30T20:16:20.307Z,2.30
2022-07-30T20:18:53.616Z,2.38
2022-07-30T20:24:24.726Z,2.22
2022-07-30T20:27:00.008Z,2.28
2022-07-30T20:29:35.641Z,2.30
2022-07-30T20:32:11.578Z,2.45
2022-07-30T20:34:47.619Z,2.30
2022-07-30T20:37:22.476Z,2.30
2022-07-30T20:39:56.359Z,2.20
2022-07-30T20:42:30.108Z,2.53
2022-07-30T20:45:07.155Z,2.05
2022-07-30T20:47:47.206Z,2.38
2022-07-30T20:50:30.961Z,2.30
2022-07-30T20:53:06.130Z,2.40
2022-07-30T20:55:41.625Z,2.15
2022-07-30T20:58:17.451Z,2.42
2022-07-30T21:00:51.860Z,2.28
2022-07-30T21:03:30.690Z,2.05
2022-07-30T21:06:08.027Z,2.40
2022-07-30T21:08:43.075Z,2.30
2022-07-30T21:11:20.004Z,2.10
2022-07-30T21:14:04.725Z,2.20
2022-07-30T21:16:43.152Z,2.25
2022-07-30T21:19:18.510Z,2.55
2022-07-30T21:21:55.807Z,2.20
2022-07-30T21:24:37.202Z,2.15
2022-07-30T21:27:14.857Z,2.47
2022-07-30T21:29:49.080Z,2.35
2022-07-30T21:32:24.015Z,2.15
2022-07-30T21:34:59.711Z,2.22
2022-07-30T21:37:36.328Z,2.30
2022-07-30T21:40:11.129Z,2.25
2022-07-30T21:42:48.734Z,2.38
2022-07-30T21:45:27.006Z,2.00
2022-07-30T21:48:18.263Z,2.33
2022-07-30T21:50:52.785Z,2.03
2022-07-30T21:53:45.160Z,2.30
2022-07-30T21:59:13.477Z,2.20
2022-07-30T22:01:48.016Z,2.10
2022-07-30T22:04:22.332Z,2.47
2022-07-30T22:10:03.499Z,2.38
2022-07-30T22:12:37.695Z,2.15
2022-07-30T22:15:15.155Z,2.28
2022-07-30T22:17:58.875Z,3.17
2022-07-30T22:20:34.577Z,2.30
2022-07-30T22:23:08.565Z,2.35
2022-07-30T22:25:45.018Z,2.25
2022-07-30T22:28:18.715Z,2.30
2022-07-30T22:30:52.781Z,2.38
2022-07-30T22:33:27.051Z,2.47
2022-07-30T22:36:04.850Z,2.40
2022-07-30T22:41:33.358Z,1.67
2022-07-30T22:44:06.785Z,2.10
2022-07-30T22:46:45.524Z,1.77
2022-07-30T22:49:45.881Z,2.00
2022-07-30T22:55:26.955Z,1.85
2022-07-30T22:58:00.604Z,1.70
2022-07-30T23:00:34.028Z,1.50
2022-07-30T23:03:11.585Z,1.85
2022-07-30T23:05:56.813Z,2.10
2022-07-30T23:08:30.972Z,1.70
2022-07-30T23:11:04.123Z,1.80
2022-07-30T23:12:19.168Z,2.75
2022-07-30T23:12:28.283Z,2.20
2022-07-30T23:13:40.029Z,1.75
2022-07-30T23:16:13.088Z,1.73
2022-07-30T23:18:46.124Z,1.50
2022-07-30T23:21:19.489Z,1.70
2022-07-30T23:23:53.424Z,1.80
2022-07-30T23:26:26.944Z,1.90
2022-07-30T23:29:01.231Z,1.70
2022-07-30T23:31:34.747Z,1.67
2022-07-30T23:34:10.420Z,1.50
2022-07-30T23:36:44.166Z,1.65
2022-07-30T23:39:17.646Z,1.80
2022-07-30T23:41:51.257Z,1.70
2022-07-30T23:44:25.084Z,1.65
2022-07-30T23:46:58.971Z,1.60
2022-07-30T23:49:32.404Z,1.75
2022-07-30T23:52:06.086Z,1.55
2022-07-30T23:54:39.658Z,1.70
2022-07-30T23:57:13.325Z,1.40
2022-07-30T23:59:46.859Z,1.60
